sensor_id;sensor_type;location;lat;lon;timestamp;pressure;altitude;pressure_sealevel;temperature;humidity
6196;BME280;3131;42.630;23.382;2022-10-16T00:01:48;95013.97;;;9.30;100.00
6196;BME280;3131;42.630;23.382;2022-10-16T00:04:17;95018.27;;;9.28;100.00
6196;BME280;3131;42.630;23.382;2022-10-16T00:06:46;95018.89;;;9.16;100.00
6196;BME280;3131;42.630;23.382;2022-10-16T00:09:16;95030.11;;;9.11;100.00
6196;BME280;3131;42.630;23.382;2022-10-16T00:11:45;95029.22;;;9.03;100.00
6196;BME280;3131;42.630;23.382;2022-10-16T00:14:15;95030.44;;;8.96;100.00
6196;BME280;3131;42.630;23.382;2022-10-16T00:16:45;95028.23;;;8.90;100.00
6196;BME280;3131;42.630;23.382;2022-10-16T00:19:14;95024.91;;;8.80;100.00
6196;BME280;3131;42.630;23.382;2022-10-16T00:21:44;95029.69;;;8.69;100.00
6196;BME280;3131;42.630;23.382;2022-10-16T00:24:13;95028.34;;;8.62;100.00
6196;BME280;3131;42.630;23.382;2022-10-16T00:26:43;95029.69;;;8.52;100.00
6196;BME280;3131;42.630;23.382;2022-10-16T00:29:12;95027.83;;;8.47;100.00
6196;BME280;3131;42.630;23.382;2022-10-16T00:31:41;95030.43;;;8.45;100.00
6196;BME280;3131;42.630;23.382;2022-10-16T00:34:11;95028.58;;;8.49;100.00
6196;BME280;3131;42.630;23.382;2022-10-16T00:36:40;95035.16;;;8.51;100.00
6196;BME280;3131;42.630;23.382;2022-10-16T00:39:09;95047.88;;;8.48;100.00
6196;BME280;3131;42.630;23.382;2022-10-16T00:41:39;95046.16;;;8.40;100.00
6196;BME280;3131;42.630;23.382;2022-10-16T00:44:42;95046.02;;;8.43;100.00
6196;BME280;3131;42.630;23.382;2022-10-16T00:47:15;95040.34;;;8.48;100.00
6196;BME280;3131;42.630;23.382;2022-10-16T00:49:46;95030.52;;;8.44;100.00
6196;BME280;3131;42.630;23.382;2022-10-16T00:52:17;95036.50;;;8.41;100.00
6196;BME280;3131;42.630;23.382;2022-10-16T00:54:47;95043.35;;;8.37;100.00
6196;BME280;3131;42.630;23.382;2022-10-16T00:57:18;95031.34;;;8.34;100.00
6196;BME280;3131;42.630;23.382;2022-10-16T00:59:47;95035.81;;;8.46;100.00
6196;BME280;3131;42.630;23.382;2022-10-16T01:02:17;95031.39;;;8.51;100.00
6196;BME280;3131;42.630;23.382;2022-10-16T01:04:49;95042.70;;;8.51;100.00
6196;BME280;3131;42.630;23.382;2022-10-16T01:07:27;95047.06;;;8.39;100.00
6196;BME280;3131;42.630;23.382;2022-10-16T01:12:44;95051.77;;;8.28;100.00
6196;BME280;3131;42.630;23.382;2022-10-16T01:15:17;95055.31;;;8.15;100.00
6196;BME280;3131;42.630;23.382;2022-10-16T01:17:49;95054.27;;;8.19;100.00
6196;BME280;3131;42.630;23.382;2022-10-16T01:20:24;95053.23;;;8.23;100.00
6196;BME280;3131;42.630;23.382;2022-10-16T01:23:12;95052.34;;;8.24;100.00
6196;BME280;3131;42.630;23.382;2022-10-16T01:25:55;95048.56;;;8.24;100.00
6196;BME280;3131;42.630;23.382;2022-10-16T01:28:28;95045.19;;;8.25;100.00
6196;BME280;3131;42.630;23.382;2022-10-16T01:31:00;95043.39;;;8.27;100.00
6196;BME280;3131;42.630;23.382;2022-10-16T01:33:34;95036.75;;;8.26;100.00
6196;BME280;3131;42.630;23.382;2022-10-16T01:36:07;95036.09;;;8.23;100.00
6196;BME280;3131;42.630;23.382;2022-10-16T01:38:39;95037.41;;;8.21;100.00
6196;BME280;3131;42.630;23.382;2022-10-16T01:41:11;95038.91;;;8.25;100.00
6196;BME280;3131;42.630;23.382;2022-10-16T01:43:43;95038.66;;;8.21;100.00
6196;BME280;3131;42.630;23.382;2022-10-16T01:46:15;95035.04;;;8.18;100.00
6196;BME280;3131;42.630;23.382;2022-10-16T01:48:45;95038.98;;;8.15;100.00
6196;BME280;3131;42.630;23.382;2022-10-16T01:51:16;95042.79;;;8.05;100.00
6196;BME280;3131;42.630;23.382;2022-10-16T01:53:49;95042.59;;;8.09;100.00
6196;BME280;3131;42.630;23.382;2022-10-16T01:56:20;95050.99;;;8.08;100.00
6196;BME280;3131;42.630;23.382;2022-10-16T01:58:53;95055.59;;;8.09;100.00
6196;BME280;3131;42.630;23.382;2022-10-16T02:01:24;95048.48;;;8.08;100.00
6196;BME280;3131;42.630;23.382;2022-10-16T02:03:57;95045.30;;;8.05;100.00
6196;BME280;3131;42.630;23.382;2022-10-16T02:06:27;95045.25;;;8.06;100.00
6196;BME280;3131;42.630;23.382;2022-10-16T02:08:57;95046.22;;;8.12;100.00
6196;BME280;3131;42.630;23.382;2022-10-16T02:11:28;95045.03;;;8.20;100.00
6196;BME280;3131;42.630;23.382;2022-10-16T02:14:00;95048.52;;;8.26;100.00
6196;BME280;3131;42.630;23.382;2022-10-16T02:16:35;95046.80;;;8.26;100.00
6196;BME280;3131;42.630;23.382;2022-10-16T02:19:05;95054.29;;;8.28;100.00
6196;BME280;3131;42.630;23.382;2022-10-16T02:21:38;95054.44;;;8.25;100.00
6196;BME280;3131;42.630;23.382;2022-10-16T02:24:11;95064.69;;;8.20;100.00
6196;BME280;3131;42.630;23.382;2022-10-16T02:26:42;95070.39;;;8.15;100.00
6196;BME280;3131;42.630;23.382;2022-10-16T02:29:15;95065.78;;;8.06;100.00
6196;BME280;3131;42.630;23.382;2022-10-16T02:31:48;95072.35;;;8.00;100.00
6196;BME280;3131;42.630;23.382;2022-10-16T02:34:19;95072.09;;;7.96;100.00
6196;BME280;3131;42.630;23.382;2022-10-16T02:36:51;95075.78;;;7.88;100.00
6196;BME280;3131;42.630;23.382;2022-10-16T02:39:22;95071.56;;;7.80;100.00
6196;BME280;3131;42.630;23.382;2022-10-16T02:41:51;95069.34;;;7.74;100.00
6196;BME280;3131;42.630;23.382;2022-10-16T02:44:20;95069.22;;;7.67;100.00
6196;BME280;3131;42.630;23.382;2022-10-16T02:46:49;95071.58;;;7.61;100.00
6196;BME280;3131;42.630;23.382;2022-10-16T02:49:19;95077.91;;;7.60;100.00
6196;BME280;3131;42.630;23.382;2022-10-16T02:51:48;95076.43;;;7.56;100.00
6196;BME280;3131;42.630;23.382;2022-10-16T02:54:18;95073.25;;;7.52;100.00
6196;BME280;3131;42.630;23.382;2022-10-16T02:56:48;95073.38;;;7.49;100.00
6196;BME280;3131;42.630;23.382;2022-10-16T02:59:17;95074.77;;;7.46;100.00
6196;BME280;3131;42.630;23.382;2022-10-16T03:01:46;95078.41;;;7.39;100.00
6196;BME280;3131;42.630;23.382;2022-10-16T03:04:16;95081.89;;;7.36;100.00
6196;BME280;3131;42.630;23.382;2022-10-16T03:06:45;95095.02;;;7.33;100.00
6196;BME280;3131;42.630;23.382;2022-10-16T03:09:15;95087.44;;;7.24;100.00
6196;BME280;3131;42.630;23.382;2022-10-16T03:11:44;95083.06;;;7.09;100.00
6196;BME280;3131;42.630;23.382;2022-10-16T03:14:13;95085.72;;;6.95;100.00
6196;BME280;3131;42.630;23.382;2022-10-16T03:16:42;95084.77;;;6.88;100.00
6196;BME280;3131;42.630;23.382;2022-10-16T03:19:12;95092.81;;;6.86;100.00
6196;BME280;3131;42.630;23.382;2022-10-16T03:21:42;95093.88;;;6.80;100.00
6196;BME280;3131;42.630;23.382;2022-10-16T03:24:11;95092.00;;;6.85;100.00
6196;BME280;3131;42.630;23.382;2022-10-16T03:26:41;95093.86;;;6.90;100.00
6196;BME280;3131;42.630;23.382;2022-10-16T03:29:10;95099.32;;;6.90;100.00
6196;BME280;3131;42.630;23.382;2022-10-16T03:31:40;95091.48;;;6.87;100.00
6196;BME280;3131;42.630;23.382;2022-10-16T03:34:09;95095.24;;;6.87;100.00
6196;BME280;3131;42.630;23.382;2022-10-16T03:36:39;95099.13;;;6.84;100.00
6196;BME280;3131;42.630;23.382;2022-10-16T03:39:08;95096.30;;;6.82;100.00
6196;BME280;3131;42.630;23.382;2022-10-16T03:41:37;95091.41;;;6.79;100.00
6196;BME280;3131;42.630;23.382;2022-10-16T03:44:07;95092.75;;;6.77;100.00
6196;BME280;3131;42.630;23.382;2022-10-16T03:46:36;95094.08;;;6.76;100.00
6196;BME280;3131;42.630;23.382;2022-10-16T03:49:05;95092.30;;;6.78;100.00
6196;BME280;3131;42.630;23.382;2022-10-16T03:51:35;95093.11;;;6.78;100.00
6196;BME280;3131;42.630;23.382;2022-10-16T03:54:05;95094.89;;;6.76;100.00
6196;BME280;3131;42.630;23.382;2022-10-16T03:56:34;95095.62;;;6.78;100.00
6196;BME280;3131;42.630;23.382;2022-10-16T03:59:03;95090.12;;;6.80;100.00
6196;BME280;3131;42.630;23.382;2022-10-16T04:01:33;95090.61;;;6.78;100.00
6196;BME280;3131;42.630;23.382;2022-10-16T04:04:02;95086.04;;;6.78;100.00
6196;BME280;3131;42.630;23.382;2022-10-16T04:06:31;95086.16;;;6.74;100.00
6196;BME280;3131;42.630;23.382;2022-10-16T04:09:01;95079.45;;;6.75;100.00
6196;BME280;3131;42.630;23.382;2022-10-16T04:11:30;95088.88;;;6.70;100.00
6196;BME280;3131;42.630;23.382;2022-10-16T04:14:00;95085.68;;;6.66;100.00
6196;BME280;3131;42.630;23.382;2022-10-16T04:16:29;95088.67;;;6.64;100.00
6196;BME280;3131;42.630;23.382;2022-10-16T04:18:58;95088.92;;;6.58;100.00
6196;BME280;3131;42.630;23.382;2022-10-16T04:21:28;95089.36;;;6.58;100.00
6196;BME280;3131;42.630;23.382;2022-10-16T04:23:57;95085.61;;;6.58;100.00
6196;BME280;3131;42.630;23.382;2022-10-16T04:26:26;95085.23;;;6.57;100.00
6196;BME280;3131;42.630;23.382;2022-10-16T04:28:56;95089.05;;;6.55;100.00
6196;BME280;3131;42.630;23.382;2022-10-16T04:31:25;95083.27;;;6.53;100.00
6196;BME280;3131;42.630;23.382;2022-10-16T04:33:54;95086.98;;;6.55;100.00
6196;BME280;3131;42.630;23.382;2022-10-16T04:36:24;95086.86;;;6.47;100.00
6196;BME280;3131;42.630;23.382;2022-10-16T04:38:53;95092.36;;;6.45;100.00
6196;BME280;3131;42.630;23.382;2022-10-16T04:41:23;95107.19;;;6.40;100.00
6196;BME280;3131;42.630;23.382;2022-10-16T04:43:52;95100.88;;;6.41;100.00
6196;BME280;3131;42.630;23.382;2022-10-16T04:46:22;95112.97;;;6.42;100.00
6196;BME280;3131;42.630;23.382;2022-10-16T04:48:51;95113.73;;;6.44;100.00
6196;BME280;3131;42.630;23.382;2022-10-16T04:51:21;95115.80;;;6.44;100.00
6196;BME280;3131;42.630;23.382;2022-10-16T04:56:36;95118.91;;;6.49;100.00
6196;BME280;3131;42.630;23.382;2022-10-16T04:59:10;95118.23;;;6.46;100.00
6196;BME280;3131;42.630;23.382;2022-10-16T05:01:39;95119.03;;;6.46;100.00
6196;BME280;3131;42.630;23.382;2022-10-16T05:04:09;95125.17;;;6.49;100.00
6196;BME280;3131;42.630;23.382;2022-10-16T05:06:39;95121.98;;;6.56;100.00
6196;BME280;3131;42.630;23.382;2022-10-16T05:09:09;95125.58;;;6.61;100.00
6196;BME280;3131;42.630;23.382;2022-10-16T05:11:38;95130.84;;;6.65;100.00
6196;BME280;3131;42.630;23.382;2022-10-16T05:14:08;95126.91;;;6.69;100.00
6196;BME280;3131;42.630;23.382;2022-10-16T05:16:37;95134.35;;;6.71;100.00
6196;BME280;3131;42.630;23.382;2022-10-16T05:19:07;95137.95;;;6.76;100.00
6196;BME280;3131;42.630;23.382;2022-10-16T05:21:36;95140.74;;;6.78;100.00
6196;BME280;3131;42.630;23.382;2022-10-16T05:24:05;95148.14;;;6.81;100.00
6196;BME280;3131;42.630;23.382;2022-10-16T05:26:35;95147.57;;;6.85;100.00
6196;BME280;3131;42.630;23.382;2022-10-16T05:29:04;95148.70;;;6.88;100.00
6196;BME280;3131;42.630;23.382;2022-10-16T05:34:20;95150.91;;;7.06;100.00
6196;BME280;3131;42.630;23.382;2022-10-16T05:36:50;95148.03;;;7.05;100.00
6196;BME280;3131;42.630;23.382;2022-10-16T05:39:19;95153.21;;;7.10;100.00
6196;BME280;3131;42.630;23.382;2022-10-16T05:41:50;95150.72;;;7.20;100.00
6196;BME280;3131;42.630;23.382;2022-10-16T05:44:20;95157.31;;;7.23;100.00
6196;BME280;3131;42.630;23.382;2022-10-16T05:46:49;95154.64;;;7.26;100.00
6196;BME280;3131;42.630;23.382;2022-10-16T05:49:18;95150.57;;;7.34;100.00
6196;BME280;3131;42.630;23.382;2022-10-16T05:51:48;95159.02;;;7.41;100.00
6196;BME280;3131;42.630;23.382;2022-10-16T05:54:17;95159.16;;;7.49;100.00
6196;BME280;3131;42.630;23.382;2022-10-16T05:56:46;95165.77;;;7.60;100.00
6196;BME280;3131;42.630;23.382;2022-10-16T05:59:16;95171.59;;;7.60;100.00
6196;BME280;3131;42.630;23.382;2022-10-16T06:01:45;95172.98;;;7.67;100.00
6196;BME280;3131;42.630;23.382;2022-10-16T06:04:14;95161.50;;;7.62;100.00
6196;BME280;3131;42.630;23.382;2022-10-16T06:06:44;95181.39;;;7.85;100.00
6196;BME280;3131;42.630;23.382;2022-10-16T06:09:13;95190.13;;;7.87;100.00
6196;BME280;3131;42.630;23.382;2022-10-16T06:11:42;95189.55;;;7.90;100.00
6196;BME280;3131;42.630;23.382;2022-10-16T06:14:12;95192.37;;;8.02;100.00
6196;BME280;3131;42.630;23.382;2022-10-16T06:16:41;95193.09;;;8.14;100.00
6196;BME280;3131;42.630;23.382;2022-10-16T06:19:10;95201.95;;;8.31;100.00
6196;BME280;3131;42.630;23.382;2022-10-16T06:21:39;95207.50;;;8.48;100.00
6196;BME280;3131;42.630;23.382;2022-10-16T06:24:09;95210.25;;;8.61;100.00
6196;BME280;3131;42.630;23.382;2022-10-16T06:26:38;95213.52;;;8.72;100.00
6196;BME280;3131;42.630;23.382;2022-10-16T06:29:09;95220.91;;;8.75;100.00
6196;BME280;3131;42.630;23.382;2022-10-16T06:31:38;95222.27;;;8.91;100.00
6196;BME280;3131;42.630;23.382;2022-10-16T06:34:10;95225.62;;;8.91;100.00
6196;BME280;3131;42.630;23.382;2022-10-16T06:36:40;95230.48;;;8.94;100.00
6196;BME280;3131;42.630;23.382;2022-10-16T06:39:11;95232.43;;;8.98;100.00
6196;BME280;3131;42.630;23.382;2022-10-16T06:41:40;95235.31;;;8.99;100.00
6196;BME280;3131;42.630;23.382;2022-10-16T06:44:10;95232.57;;;9.12;100.00
6196;BME280;3131;42.630;23.382;2022-10-16T06:46:39;95233.16;;;9.35;100.00
6196;BME280;3131;42.630;23.382;2022-10-16T06:49:08;95238.64;;;9.43;100.00
6196;BME280;3131;42.630;23.382;2022-10-16T06:51:38;95235.67;;;9.43;100.00
6196;BME280;3131;42.630;23.382;2022-10-16T06:54:08;95239.21;;;9.48;100.00
6196;BME280;3131;42.630;23.382;2022-10-16T06:56:38;95246.31;;;9.57;100.00
6196;BME280;3131;42.630;23.382;2022-10-16T06:59:07;95250.63;;;9.88;100.00
6196;BME280;3131;42.630;23.382;2022-10-16T07:01:37;95249.98;;;10.09;100.00
6196;BME280;3131;42.630;23.382;2022-10-16T07:04:06;95252.91;;;10.26;100.00
6196;BME280;3131;42.630;23.382;2022-10-16T07:06:35;95251.50;;;10.45;100.00
6196;BME280;3131;42.630;23.382;2022-10-16T07:09:06;95267.61;;;10.58;100.00
6196;BME280;3131;42.630;23.382;2022-10-16T07:11:38;95264.30;;;10.81;100.00
6196;BME280;3131;42.630;23.382;2022-10-16T07:14:14;95260.91;;;11.12;100.00
6196;BME280;3131;42.630;23.382;2022-10-16T07:16:44;95265.92;;;11.35;100.00
6196;BME280;3131;42.630;23.382;2022-10-16T07:19:14;95270.85;;;11.52;100.00
6196;BME280;3131;42.630;23.382;2022-10-16T07:21:45;95271.88;;;11.64;100.00
6196;BME280;3131;42.630;23.382;2022-10-16T07:24:15;95274.30;;;11.73;100.00
6196;BME280;3131;42.630;23.382;2022-10-16T07:26:46;95275.06;;;11.89;100.00
6196;BME280;3131;42.630;23.382;2022-10-16T07:29:17;95277.61;;;12.03;100.00
6196;BME280;3131;42.630;23.382;2022-10-16T07:31:48;95271.48;;;12.15;100.00
6196;BME280;3131;42.630;23.382;2022-10-16T07:34:19;95275.07;;;12.32;100.00
6196;BME280;3131;42.630;23.382;2022-10-16T07:36:50;95281.72;;;12.54;100.00
6196;BME280;3131;42.630;23.382;2022-10-16T07:39:20;95282.08;;;12.63;100.00
6196;BME280;3131;42.630;23.382;2022-10-16T07:41:49;95287.59;;;12.89;100.00
6196;BME280;3131;42.630;23.382;2022-10-16T07:44:19;95284.27;;;13.09;100.00
6196;BME280;3131;42.630;23.382;2022-10-16T07:46:48;95293.02;;;13.17;100.00
6196;BME280;3131;42.630;23.382;2022-10-16T07:49:17;95292.63;;;13.31;100.00
6196;BME280;3131;42.630;23.382;2022-10-16T07:51:47;95288.95;;;13.75;100.00
6196;BME280;3131;42.630;23.382;2022-10-16T07:54:16;95303.88;;;17.26;100.00
6196;BME280;3131;42.630;23.382;2022-10-16T07:56:46;95316.95;;;20.84;78.32
6196;BME280;3131;42.630;23.382;2022-10-16T07:59:15;95316.62;;;23.28;55.69
6196;BME280;3131;42.630;23.382;2022-10-16T08:01:45;95317.23;;;24.40;47.66
6196;BME280;3131;42.630;23.382;2022-10-16T08:04:14;95321.67;;;25.33;45.38
6196;BME280;3131;42.630;23.382;2022-10-16T08:06:44;95324.98;;;26.07;41.50
6196;BME280;3131;42.630;23.382;2022-10-16T08:09:13;95329.16;;;26.42;41.01
6196;BME280;3131;42.630;23.382;2022-10-16T08:11:43;95329.86;;;26.84;39.15
6196;BME280;3131;42.630;23.382;2022-10-16T08:16:59;95323.68;;;27.58;37.12
6196;BME280;3131;42.630;23.382;2022-10-16T08:19:30;95325.93;;;27.14;37.17
6196;BME280;3131;42.630;23.382;2022-10-16T08:22:01;95326.77;;;28.17;35.51
6196;BME280;3131;42.630;23.382;2022-10-16T08:24:30;95323.20;;;27.80;35.49
6196;BME280;3131;42.630;23.382;2022-10-16T08:27:00;95322.05;;;27.99;34.95
6196;BME280;3131;42.630;23.382;2022-10-16T08:29:29;95318.04;;;29.32;33.29
6196;BME280;3131;42.630;23.382;2022-10-16T08:31:59;95319.42;;;29.21;33.17
6196;BME280;3131;42.630;23.382;2022-10-16T08:34:28;95313.84;;;28.24;34.30
6196;BME280;3131;42.630;23.382;2022-10-16T08:36:57;95315.48;;;28.84;33.21
6196;BME280;3131;42.630;23.382;2022-10-16T08:39:27;95316.91;;;29.24;33.37
6196;BME280;3131;42.630;23.382;2022-10-16T08:42:07;95311.16;;;29.42;32.76
6196;BME280;3131;42.630;23.382;2022-10-16T08:44:49;95322.63;;;30.00;31.94
6196;BME280;3131;42.630;23.382;2022-10-16T08:47:21;95322.42;;;29.82;31.91
6196;BME280;3131;42.630;23.382;2022-10-16T08:49:56;95325.03;;;30.64;30.05
6196;BME280;3131;42.630;23.382;2022-10-16T08:52:29;95323.11;;;29.80;30.28
6196;BME280;3131;42.630;23.382;2022-10-16T08:55:00;95325.83;;;30.29;29.62
6196;BME280;3131;42.630;23.382;2022-10-16T08:57:30;95323.65;;;29.05;30.69
6196;BME280;3131;42.630;23.382;2022-10-16T09:00:05;95325.80;;;30.22;29.76
6196;BME280;3131;42.630;23.382;2022-10-16T09:02:34;95332.31;;;29.82;29.62
6196;BME280;3131;42.630;23.382;2022-10-16T09:05:22;95326.14;;;31.40;28.25
6196;BME280;3131;42.630;23.382;2022-10-16T09:07:59;95331.43;;;30.97;27.97
6196;BME280;3131;42.630;23.382;2022-10-16T09:10:35;95328.86;;;30.55;28.17
6196;BME280;3131;42.630;23.382;2022-10-16T09:13:10;95323.19;;;30.16;27.97
6196;BME280;3131;42.630;23.382;2022-10-16T09:15:44;95327.17;;;31.64;26.61
6196;BME280;3131;42.630;23.382;2022-10-16T09:18:16;95322.08;;;31.92;26.45
6196;BME280;3131;42.630;23.382;2022-10-16T09:23:36;95322.63;;;32.19;26.23
6196;BME280;3131;42.630;23.382;2022-10-16T09:26:09;95327.84;;;32.00;26.22
6196;BME280;3131;42.630;23.382;2022-10-16T09:28:38;95320.95;;;30.88;27.05
6196;BME280;3131;42.630;23.382;2022-10-16T09:31:13;95314.56;;;31.45;26.92
6196;BME280;3131;42.630;23.382;2022-10-16T09:33:47;95321.68;;;32.66;25.47
6196;BME280;3131;42.630;23.382;2022-10-16T09:36:16;95318.72;;;31.14;25.94
6196;BME280;3131;42.630;23.382;2022-10-16T09:38:45;95318.72;;;31.14;25.94
6196;BME280;3131;42.630;23.382;2022-10-16T09:41:20;95327.36;;;30.50;26.75
6196;BME280;3131;42.630;23.382;2022-10-16T09:43:55;95316.05;;;31.50;25.95
6196;BME280;3131;42.630;23.382;2022-10-16T09:46:30;95317.08;;;31.58;25.68
6196;BME280;3131;42.630;23.382;2022-10-16T09:49:01;95310.43;;;31.94;25.64
6196;BME280;3131;42.630;23.382;2022-10-16T09:51:33;95313.73;;;32.17;25.30
6196;BME280;3131;42.630;23.382;2022-10-16T09:54:13;95307.28;;;32.38;24.89
6196;BME280;3131;42.630;23.382;2022-10-16T09:56:42;95312.21;;;31.94;25.34
6196;BME280;3131;42.630;23.382;2022-10-16T09:59:14;95304.84;;;31.05;26.66
6196;BME280;3131;42.630;23.382;2022-10-16T10:01:46;95310.69;;;31.00;26.41
6196;BME280;3131;42.630;23.382;2022-10-16T10:04:16;95310.85;;;31.75;25.68
6196;BME280;3131;42.630;23.382;2022-10-16T10:06:47;95309.53;;;32.16;25.26
6196;BME280;3131;42.630;23.382;2022-10-16T10:09:22;95302.21;;;32.34;24.97
6196;BME280;3131;42.630;23.382;2022-10-16T10:11:54;95295.60;;;32.31;25.38
6196;BME280;3131;42.630;23.382;2022-10-16T10:14:26;95296.33;;;33.12;24.48
6196;BME280;3131;42.630;23.382;2022-10-16T10:20:21;95288.38;;;32.43;25.39
6196;BME280;3131;42.630;23.382;2022-10-16T10:22:49;95287.06;;;33.28;24.87
6196;BME280;3131;42.630;23.382;2022-10-16T10:25:25;95293.73;;;32.85;24.82
6196;BME280;3131;42.630;23.382;2022-10-16T10:31:00;95286.52;;;33.59;23.78
6196;BME280;3131;42.630;23.382;2022-10-16T10:33:37;95289.50;;;32.01;24.99
6196;BME280;3131;42.630;23.382;2022-10-16T10:36:14;95285.25;;;32.89;24.12
6196;BME280;3131;42.630;23.382;2022-10-16T10:38:49;95285.89;;;33.54;23.37
6196;BME280;3131;42.630;23.382;2022-10-16T10:47:06;95277.80;;;32.47;24.20
6196;BME280;3131;42.630;23.382;2022-10-16T10:49:43;95272.42;;;32.69;24.72
6196;BME280;3131;42.630;23.382;2022-10-16T10:52:34;95270.88;;;34.67;22.91
6196;BME280;3131;42.630;23.382;2022-10-16T10:55:13;95271.52;;;34.74;22.22
6196;BME280;3131;42.630;23.382;2022-10-16T10:57:51;95273.49;;;34.17;23.03
6196;BME280;3131;42.630;23.382;2022-10-16T11:00:21;95264.15;;;34.22;22.51
6196;BME280;3131;42.630;23.382;2022-10-16T11:02:55;95260.75;;;34.59;22.40
6196;BME280;3131;42.630;23.382;2022-10-16T11:05:42;95266.44;;;34.06;21.78
6196;BME280;3131;42.630;23.382;2022-10-16T11:08:15;95258.20;;;32.74;22.95
6196;BME280;3131;42.630;23.382;2022-10-16T11:10:50;95254.45;;;34.57;21.22
6196;BME280;3131;42.630;23.382;2022-10-16T11:13:28;95252.95;;;35.50;20.65
6196;BME280;3131;42.630;23.382;2022-10-16T11:16:03;95250.94;;;33.93;21.41
6196;BME280;3131;42.630;23.382;2022-10-16T11:18:39;95249.98;;;33.40;21.76
6196;BME280;3131;42.630;23.382;2022-10-16T11:21:11;95252.04;;;32.04;22.10
6196;BME280;3131;42.630;23.382;2022-10-16T11:23:44;95250.69;;;33.05;21.63
6196;BME280;3131;42.630;23.382;2022-10-16T11:26:17;95253.66;;;33.74;20.87
6196;BME280;3131;42.630;23.382;2022-10-16T11:28:49;95250.03;;;32.92;21.26
6196;BME280;3131;42.630;23.382;2022-10-16T11:31:23;95243.91;;;33.82;20.50
6196;BME280;3131;42.630;23.382;2022-10-16T11:33:57;95242.41;;;32.51;21.67
6196;BME280;3131;42.630;23.382;2022-10-16T11:36:32;95243.95;;;33.96;20.41
6196;BME280;3131;42.630;23.382;2022-10-16T11:39:02;95250.03;;;33.99;20.57
6196;BME280;3131;42.630;23.382;2022-10-16T11:41:34;95240.87;;;33.43;20.43
6196;BME280;3131;42.630;23.382;2022-10-16T11:44:20;95246.42;;;32.93;20.86
6196;BME280;3131;42.630;23.382;2022-10-16T11:49:40;95243.39;;;31.29;22.78
6196;BME280;3131;42.630;23.382;2022-10-16T11:52:15;95244.48;;;33.30;21.25
6196;BME280;3131;42.630;23.382;2022-10-16T11:54:49;95241.39;;;33.87;20.75
6196;BME280;3131;42.630;23.382;2022-10-16T12:00:06;95235.45;;;34.64;20.46
6196;BME280;3131;42.630;23.382;2022-10-16T12:02:43;95242.30;;;33.81;21.08
6196;BME280;3131;42.630;23.382;2022-10-16T12:05:18;95237.20;;;34.73;20.27
6196;BME280;3131;42.630;23.382;2022-10-16T12:07:51;95240.35;;;33.11;21.18
6196;BME280;3131;42.630;23.382;2022-10-16T12:10:23;95229.62;;;33.87;20.88
6196;BME280;3131;42.630;23.382;2022-10-16T12:12:53;95241.20;;;34.78;19.82
6196;BME280;3131;42.630;23.382;2022-10-16T12:15:26;95232.27;;;34.91;19.85
6196;BME280;3131;42.630;23.382;2022-10-16T12:17:56;95238.73;;;34.86;19.87
6196;BME280;3131;42.630;23.382;2022-10-16T12:20:28;95229.63;;;35.03;20.53
6196;BME280;3131;42.630;23.382;2022-10-16T12:23:02;95239.38;;;35.22;20.50
6196;BME280;3131;42.630;23.382;2022-10-16T12:25:33;95240.70;;;35.07;20.01
6196;BME280;3131;42.630;23.382;2022-10-16T12:28:05;95237.52;;;34.77;20.54
6196;BME280;3131;42.630;23.382;2022-10-16T12:30:36;95238.89;;;33.80;20.77
6196;BME280;3131;42.630;23.382;2022-10-16T12:33:15;95237.47;;;33.42;21.01
6196;BME280;3131;42.630;23.382;2022-10-16T12:35:43;95243.51;;;34.23;20.53
6196;BME280;3131;42.630;23.382;2022-10-16T12:38:21;95241.74;;;32.74;21.90
6196;BME280;3131;42.630;23.382;2022-10-16T12:40:59;95234.66;;;34.52;20.65
6196;BME280;3131;42.630;23.382;2022-10-16T12:43:38;95247.98;;;34.25;20.68
6196;BME280;3131;42.630;23.382;2022-10-16T12:46:22;95238.46;;;33.18;21.47
6196;BME280;3131;42.630;23.382;2022-10-16T12:48:52;95239.98;;;34.05;20.83
6196;BME280;3131;42.630;23.382;2022-10-16T12:51:33;95240.56;;;34.45;20.70
6196;BME280;3131;42.630;23.382;2022-10-16T12:54:05;95246.61;;;33.42;21.44
6196;BME280;3131;42.630;23.382;2022-10-16T12:56:40;95250.05;;;34.60;20.15
6196;BME280;3131;42.630;23.382;2022-10-16T12:59:16;95242.59;;;33.37;21.60
6196;BME280;3131;42.630;23.382;2022-10-16T13:02:03;95248.66;;;33.96;20.94
6196;BME280;3131;42.630;23.382;2022-10-16T13:04:58;95249.53;;;34.49;20.91
6196;BME280;3131;42.630;23.382;2022-10-16T13:07:36;95255.50;;;33.62;21.06
6196;BME280;3131;42.630;23.382;2022-10-16T13:10:13;95252.77;;;33.27;21.47
6196;BME280;3131;42.630;23.382;2022-10-16T13:12:57;95255.10;;;32.20;22.28
6196;BME280;3131;42.630;23.382;2022-10-16T13:15:54;95254.42;;;32.15;22.62
6196;BME280;3131;42.630;23.382;2022-10-16T13:18:26;95250.03;;;33.01;22.08
6196;BME280;3131;42.630;23.382;2022-10-16T13:21:05;95254.68;;;33.62;21.75
6196;BME280;3131;42.630;23.382;2022-10-16T13:23:38;95250.53;;;33.31;22.50
6196;BME280;3131;42.630;23.382;2022-10-16T13:26:14;95250.27;;;33.20;22.52
6196;BME280;3131;42.630;23.382;2022-10-16T13:28:44;95248.17;;;34.58;21.41
6196;BME280;3131;42.630;23.382;2022-10-16T13:31:17;95247.90;;;34.57;21.20
6196;BME280;3131;42.630;23.382;2022-10-16T13:33:49;95247.54;;;34.54;21.01
6196;BME280;3131;42.630;23.382;2022-10-16T13:36:23;95252.09;;;32.99;22.36
6196;BME280;3131;42.630;23.382;2022-10-16T13:39:06;95248.66;;;32.50;22.28
6196;BME280;3131;42.630;23.382;2022-10-16T13:41:33;95252.55;;;30.90;24.10
6196;BME280;3131;42.630;23.382;2022-10-16T13:44:03;95253.34;;;31.07;24.07
6196;BME280;3131;42.630;23.382;2022-10-16T13:46:33;95249.79;;;32.08;23.29
6196;BME280;3131;42.630;23.382;2022-10-16T13:49:04;95255.02;;;32.63;22.57
6196;BME280;3131;42.630;23.382;2022-10-16T13:51:34;95251.75;;;32.77;22.53
6196;BME280;3131;42.630;23.382;2022-10-16T13:54:03;95252.72;;;33.03;21.91
6196;BME280;3131;42.630;23.382;2022-10-16T13:56:33;95257.78;;;32.13;23.39
6196;BME280;3131;42.630;23.382;2022-10-16T14:01:45;95253.37;;;33.08;22.23
6196;BME280;3131;42.630;23.382;2022-10-16T14:04:15;95262.30;;;32.61;22.45
6196;BME280;3131;42.630;23.382;2022-10-16T14:06:46;95259.50;;;32.01;23.50
6196;BME280;3131;42.630;23.382;2022-10-16T14:09:21;95254.52;;;32.36;23.30